createdAt,value
2023-04-12T00:00:52.866Z,6.65
2023-04-12T00:01:54.635Z,6.35
2023-04-12T00:02:59.682Z,6.05
2023-04-12T00:04:05.817Z,6.25
2023-04-12T00:05:09.797Z,5.65
2023-04-12T00:06:13.485Z,6.13
2023-04-12T00:07:18.560Z,5.90
2023-04-12T00:08:26.742Z,6.15
2023-04-12T00:09:31.344Z,5.90
2023-04-12T00:10:33.167Z,6.03
2023-04-12T00:11:35.960Z,6.38
2023-04-12T00:12:37.740Z,5.45
2023-04-12T00:13:39.446Z,6.07
2023-04-12T00:14:41.259Z,6.18
2023-04-12T00:15:43.027Z,6.18
2023-04-12T00:16:44.773Z,6.00
2023-04-12T00:17:47.138Z,6.53
2023-04-12T00:18:48.956Z,6.15
2023-04-12T00:19:51.070Z,6.43
2023-04-12T00:20:53.240Z,5.95
2023-04-12T00:21:55.061Z,6.05
2023-04-12T00:22:57.797Z,5.50
2023-04-12T00:23:59.757Z,5.75
2023-04-12T00:25:01.573Z,5.22
2023-04-12T00:26:03.285Z,5.78
2023-04-12T00:27:05.654Z,4.80
2023-04-12T00:28:07.397Z,5.22
2023-04-12T00:29:09.170Z,5.38
2023-04-12T00:30:12.073Z,5.35
2023-04-12T00:31:14.276Z,5.72
2023-04-12T00:32:16.063Z,5.70
2023-04-12T00:33:17.779Z,5.22
2023-04-12T00:34:19.576Z,5.38
2023-04-12T00:35:21.312Z,5.05
2023-04-12T00:36:23.037Z,5.22
2023-04-12T00:37:24.824Z,5.13
2023-04-12T00:38:26.570Z,5.47
2023-04-12T00:39:28.496Z,4.88
2023-04-12T00:40:30.377Z,5.25
2023-04-12T00:41:32.133Z,4.88
2023-04-12T00:42:35.253Z,5.10
2023-04-12T00:43:36.959Z,5.68
2023-04-12T00:44:38.692Z,5.13
2023-04-12T00:45:40.681Z,4.88
2023-04-12T00:46:42.512Z,5.00
2023-04-12T00:47:44.526Z,5.65
2023-04-12T00:48:48.413Z,5.32
2023-04-12T00:49:50.399Z,5.20
2023-04-12T00:50:55.548Z,5.38
2023-04-12T00:52:03.498Z,4.95
2023-04-12T00:53:05.254Z,5.85
2023-04-12T00:54:07.204Z,5.22
2023-04-12T00:55:10.466Z,5.00
2023-04-12T00:56:12.222Z,5.00
2023-04-12T00:57:14.006Z,5.15
2023-04-12T00:58:16.333Z,5.13
2023-04-12T00:59:18.753Z,5.13
2023-04-12T01:00:20.968Z,4.88
2023-04-12T01:01:22.908Z,4.70
2023-04-12T01:02:24.890Z,5.40
2023-04-12T01:03:30.954Z,5.38
2023-04-12T01:04:34.705Z,5.50
2023-04-12T01:05:43.744Z,5.22
2023-04-12T01:07:02.426Z,5.47
2023-04-12T01:08:07.199Z,4.40
2023-04-12T01:09:34.529Z,5.72
2023-04-12T01:10:49.747Z,4.93
2023-04-12T01:12:01.830Z,5.38
2023-04-12T01:13:18.941Z,4.93
2023-04-12T01:14:43.635Z,4.82
2023-04-12T01:15:58.778Z,5.07
2023-04-12T01:17:05.268Z,5.07
2023-04-12T01:18:17.481Z,4.38
2023-04-12T01:19:57.919Z,4.50
2023-04-12T01:21:09.858Z,3.67
2023-04-12T01:22:55.589Z,4.43
2023-04-12T01:24:03.070Z,4.47
2023-04-12T01:25:30.783Z,4.25
2023-04-12T01:26:44.429Z,3.92
2023-04-12T01:27:49.965Z,4.57
2023-04-12T01:28:53.504Z,4.22
2023-04-12T01:29:56.662Z,3.97
2023-04-12T01:31:01.473Z,4.28
2023-04-12T01:32:03.997Z,4.15
2023-04-12T01:33:10.693Z,4.80
2023-04-12T01:34:14.018Z,4.47
2023-04-12T01:35:17.481Z,5.28
2023-04-12T01:36:22.228Z,4.95
2023-04-12T01:37:24.563Z,4.90
2023-04-12T01:38:27.312Z,4.75
2023-04-12T01:39:30.992Z,4.88
2023-04-12T01:40:33.410Z,4.88
2023-04-12T01:41:42.001Z,4.78
2023-04-12T01:42:43.713Z,5.00
2023-04-12T01:43:46.818Z,5.22
2023-04-12T01:44:50.388Z,5.15
2023-04-12T01:45:52.166Z,4.78
2023-04-12T01:46:54.312Z,4.95
2023-04-12T01:47:56.550Z,4.80
2023-04-12T01:48:58.689Z,4.55
2023-04-12T01:50:18.753Z,4.65
2023-04-12T01:51:26.181Z,4.95
2023-04-12T01:52:31.592Z,4.72
2023-04-12T01:53:49.551Z,4.90
2023-04-12T01:54:57.615Z,4.50
2023-04-12T01:56:07.152Z,4.43
2023-04-12T01:57:09.950Z,5.43
2023-04-12T01:58:12.592Z,5.05
2023-04-12T01:59:16.166Z,4.55
2023-04-12T02:00:19.955Z,4.90
2023-04-12T02:01:22.837Z,4.57
2023-04-12T02:02:25.885Z,4.60
2023-04-12T02:03:30.771Z,4.68
2023-04-12T02:04:34.678Z,4.28
2023-04-12T02:05:36.806Z,4.75
2023-04-12T02:06:40.179Z,4.50
2023-04-12T02:07:42.460Z,4.97
2023-04-12T02:08:44.867Z,4.60
2023-04-12T02:09:46.665Z,4.97
2023-04-12T02:10:48.411Z,5.43
2023-04-12T02:11:50.198Z,4.70
2023-04-12T02:12:51.900Z,4.80
2023-04-12T02:13:53.738Z,5.03
2023-04-12T02:14:55.494Z,4.68
2023-04-12T02:15:57.278Z,4.63
2023-04-12T02:16:59.883Z,4.80
2023-04-12T02:18:01.776Z,4.75
2023-04-12T02:19:04.082Z,5.03
2023-04-12T02:20:12.438Z,4.88
2023-04-12T02:21:14.169Z,4.93
2023-04-12T02:22:17.327Z,4.68
2023-04-12T02:23:19.040Z,4.45
2023-04-12T02:24:20.845Z,5.38
2023-04-12T02:25:22.771Z,4.88
2023-04-12T02:26:24.569Z,4.57
2023-04-12T02:27:26.303Z,4.40
2023-04-12T02:28:27.995Z,4.43
2023-04-12T02:29:29.748Z,4.70
2023-04-12T02:30:31.484Z,4.65
2023-04-12T02:31:33.870Z,4.65
2023-04-12T02:32:44.171Z,4.40
2023-04-12T02:33:46.006Z,4.55
2023-04-12T02:34:51.555Z,4.93
2023-04-12T02:35:53.315Z,4.53
2023-04-12T02:36:55.085Z,4.72
2023-04-12T02:37:58.001Z,4.25
2023-04-12T02:38:59.717Z,4.45
2023-04-12T02:40:02.611Z,4.53
2023-04-12T02:41:04.526Z,5.05
2023-04-12T02:42:07.161Z,4.88
2023-04-12T02:43:09.816Z,4.82
2023-04-12T02:44:11.677Z,4.47
2023-04-12T02:45:13.534Z,5.03
2023-04-12T02:46:21.872Z,4.95
2023-04-12T02:47:28.587Z,4.60
2023-04-12T02:48:30.378Z,5.15
2023-04-12T02:49:32.187Z,4.80
2023-04-12T02:50:34.635Z,4.80
2023-04-12T02:51:36.556Z,4.80
2023-04-12T02:52:38.255Z,4.68
2023-04-12T02:53:40.242Z,5.18
2023-04-12T02:54:41.939Z,4.93
2023-04-12T02:55:44.857Z,4.70
2023-04-12T02:56:46.826Z,5.05
2023-04-12T02:57:49.101Z,4.55
2023-04-12T02:58:51.191Z,4.80
2023-04-12T02:59:56.030Z,4.72
2023-04-12T03:01:00.337Z,4.68
2023-04-12T03:02:02.194Z,5.25
2023-04-12T03:03:04.254Z,5.00
2023-04-12T03:04:06.243Z,4.82
2023-04-12T03:05:08.878Z,5.10
2023-04-12T03:06:11.113Z,4.50
2023-04-12T03:07:17.305Z,4.50
2023-04-12T03:08:19.391Z,5.25
2023-04-12T03:09:21.593Z,4.53
2023-04-12T03:10:23.509Z,4.80
2023-04-12T03:11:25.258Z,5.00
2023-04-12T03:12:27.186Z,4.50
2023-04-12T03:13:29.491Z,5.20
2023-04-12T03:14:31.234Z,4.68
2023-04-12T03:15:32.986Z,5.35
2023-04-12T03:16:35.668Z,4.85
2023-04-12T03:17:37.441Z,4.38
2023-04-12T03:18:39.162Z,5.20
2023-04-12T03:19:40.896Z,4.63
2023-04-12T03:20:46.010Z,4.50
2023-04-12T03:21:49.104Z,5.07
2023-04-12T03:22:51.677Z,4.63
2023-04-12T03:23:53.362Z,4.75
2023-04-12T03:24:55.452Z,4.72
2023-04-12T03:25:57.169Z,5.22
2023-04-12T03:26:59.152Z,4.78
2023-04-12T03:28:00.937Z,4.68
2023-04-12T03:29:11.413Z,4.80
2023-04-12T03:30:13.555Z,5.63
2023-04-12T03:31:15.647Z,4.35
2023-04-12T03:32:17.428Z,4.65
2023-04-12T03:33:19.165Z,5.20
2023-04-12T03:34:20.881Z,5.10
2023-04-12T03:35:22.627Z,5.05
2023-04-12T03:36:24.474Z,5.20
2023-04-12T03:37:26.376Z,4.88
2023-04-12T03:38:28.181Z,4.68
2023-04-12T03:39:29.912Z,5.10
2023-04-12T03:40:31.659Z,5.05
2023-04-12T03:41:34.158Z,5.60
2023-04-12T03:42:36.624Z,5.30
2023-04-12T03:43:38.377Z,5.15
2023-04-12T03:44:40.226Z,5.10
2023-04-12T03:45:43.292Z,4.57
2023-04-12T03:46:45.313Z,5.07
2023-04-12T03:47:47.123Z,4.70
2023-04-12T03:48:50.152Z,4.45
2023-04-12T03:50:10.455Z,5.30
2023-04-12T03:51:13.247Z,5.10
2023-04-12T03:52:14.978Z,5.75
2023-04-12T03:53:16.732Z,6.30
2023-04-12T03:54:18.434Z,5.28
2023-04-12T03:55:20.353Z,5.53
2023-04-12T03:56:22.230Z,4.63
2023-04-12T03:57:23.948Z,5.28
2023-04-12T03:58:25.678Z,5.63
2023-04-12T03:59:27.387Z,5.78
2023-04-12T04:00:31.648Z,5.75
2023-04-12T04:01:34.754Z,5.93
2023-04-12T04:02:36.930Z,5.82
2023-04-12T04:03:38.938Z,6.07
2023-04-12T04:04:40.900Z,6.30
2023-04-12T04:05:42.934Z,6.40
2023-04-12T04:06:44.920Z,6.38
2023-04-12T04:07:47.036Z,6.15
2023-04-12T04:08:50.764Z,6.55
2023-04-12T04:09:54.588Z,6.25
2023-04-12T04:10:59.670Z,5.65
2023-04-12T04:12:02.164Z,7.38
2023-04-12T04:13:03.890Z,6.55
2023-04-12T04:14:05.826Z,6.38
2023-04-12T04:15:08.029Z,6.35
2023-04-12T04:16:12.982Z,6.72
2023-04-12T04:17:14.746Z,5.97
2023-04-12T04:18:16.446Z,6.35
2023-04-12T04:19:18.140Z,6.70
2023-04-12T04:20:20.648Z,6.20
2023-04-12T04:21:22.602Z,8.63
2023-04-12T04:22:24.381Z,9.45
2023-04-12T04:23:27.858Z,6.30
2023-04-12T04:24:30.015Z,6.43
2023-04-12T04:25:31.967Z,6.13
2023-04-12T04:26:33.762Z,5.65
2023-04-12T04:27:38.573Z,5.30
2023-04-12T04:28:45.578Z,5.22
2023-04-12T04:29:47.474Z,5.88
2023-04-12T04:30:51.567Z,5.50
2023-04-12T04:31:54.108Z,4.75
2023-04-12T04:32:55.877Z,6.57
2023-04-12T04:33:58.960Z,5.15
2023-04-12T04:35:00.988Z,5.93
2023-04-12T04:36:07.384Z,4.93
2023-04-12T04:37:09.088Z,5.22
2023-04-12T04:38:10.797Z,6.70
2023-04-12T04:39:12.515Z,5.70
2023-04-12T04:40:15.398Z,6.57
2023-04-12T04:41:17.681Z,6.65
2023-04-12T04:42:19.394Z,6.22
2023-04-12T04:43:21.999Z,5.80
2023-04-12T04:44:25.901Z,6.63
2023-04-12T04:45:27.819Z,6.30
2023-04-12T04:46:31.115Z,6.90
2023-04-12T04:47:32.995Z,6.65
2023-04-12T04:48:34.716Z,6.45
2023-04-12T04:49:39.871Z,6.78
2023-04-12T04:50:41.626Z,6.55
2023-04-12T04:51:43.359Z,7.05
2023-04-12T04:52:45.101Z,6.63
2023-04-12T04:53:46.856Z,7.10
2023-04-12T04:54:48.620Z,7.15
2023-04-12T04:55:57.944Z,6.78
2023-04-12T04:56:59.809Z,6.55
2023-04-12T04:58:01.822Z,7.05
2023-04-12T04:59:03.521Z,6.80
2023-04-12T05:00:11.866Z,7.35
2023-04-12T05:01:13.791Z,7.22
2023-04-12T05:02:16.959Z,6.97
2023-04-12T05:03:18.834Z,6.43
2023-04-12T05:04:20.639Z,6.60
2023-04-12T05:05:23.507Z,8.02
2023-04-12T05:06:25.885Z,7.15
2023-04-12T05:07:27.655Z,7.55
2023-04-12T05:08:29.340Z,7.53
2023-04-12T05:09:31.127Z,7.47
2023-04-12T05:10:32.896Z,6.93
2023-04-12T05:11:34.591Z,6.70
2023-04-12T05:12:37.153Z,7.05
2023-04-12T05:13:38.879Z,7.10
2023-04-12T05:14:47.302Z,6.80
2023-04-12T05:15:51.530Z,6.97
2023-04-12T05:16:53.296Z,7.13
2023-04-12T05:17:55.141Z,6.95
2023-04-12T05:18:57.040Z,7.50
2023-04-12T05:19:58.947Z,7.32
2023-04-12T05:21:04.305Z,7.38
2023-04-12T05:22:06.563Z,7.35
2023-04-12T05:23:08.283Z,7.25
2023-04-12T05:24:09.993Z,7.18
2023-04-12T05:25:11.750Z,7.20
2023-04-12T05:26:13.900Z,7.43
2023-04-12T05:27:19.130Z,7.05
2023-04-12T05:28:20.814Z,6.85
2023-04-12T05:29:22.529Z,7.70
2023-04-12T05:30:24.238Z,7.53
2023-04-12T05:31:26.074Z,6.95
2023-04-12T05:32:27.832Z,7.72
2023-04-12T05:33:31.605Z,8.07
2023-04-12T05:34:34.657Z,7.63
2023-04-12T05:35:36.544Z,7.35
2023-04-12T05:36:38.287Z,7.43
2023-04-12T05:37:39.971Z,8.05
2023-04-12T05:38:41.801Z,7.95
2023-04-12T05:39:43.590Z,8.50
2023-04-12T05:40:45.313Z,8.40
2023-04-12T05:41:47.121Z,7.40
2023-04-12T05:42:48.832Z,7.30
2023-04-12T05:43:50.517Z,8.38
2023-04-12T05:44:52.281Z,7.32
2023-04-12T05:45:54.067Z,7.50
2023-04-12T05:46:55.972Z,8.07
2023-04-12T05:47:57.720Z,8.35
2023-04-12T05:48:59.676Z,8.18
2023-04-12T05:50:01.530Z,7.63
2023-04-12T05:51:05.107Z,8.70
2023-04-12T05:52:07.193Z,8.25
2023-04-12T05:53:10.631Z,8.30
2023-04-12T05:54:12.330Z,8.27
2023-04-12T05:55:14.980Z,8.75
2023-04-12T05:56:17.009Z,9.18
2023-04-12T05:57:18.894Z,9.30
2023-04-12T05:58:20.764Z,9.73
2023-04-12T05:59:22.782Z,8.75
2023-04-12T06:00:24.668Z,9.63
2023-04-12T06:01:34.430Z,9.52
2023-04-12T06:02:36.956Z,9.25
2023-04-12T06:03:41.808Z,18.52
2023-04-12T06:04:50.781Z,30.98
2023-04-12T06:05:53.532Z,27.58
2023-04-12T06:06:56.465Z,24.17
2023-04-12T06:08:00.060Z,16.85
2023-04-12T06:09:02.896Z,13.57
2023-04-12T06:10:04.810Z,12.27
2023-04-12T06:11:06.854Z,9.98
2023-04-12T06:12:08.612Z,10.57
2023-04-12T06:13:10.325Z,11.18
2023-04-12T06:14:12.121Z,11.00
2023-04-12T06:15:13.895Z,10.77
2023-04-12T06:16:15.638Z,11.27
2023-04-12T06:17:17.373Z,11.20
2023-04-12T06:18:19.152Z,11.15
2023-04-12T06:19:20.873Z,10.95
2023-04-12T06:20:22.576Z,11.60
2023-04-12T06:21:25.033Z,9.95
2023-04-12T06:22:26.746Z,10.27
2023-04-12T06:23:28.489Z,11.63
2023-04-12T06:24:30.237Z,10.40
2023-04-12T06:25:32.193Z,11.15
2023-04-12T06:26:39.751Z,10.90
2023-04-12T06:27:42.316Z,9.68
2023-04-12T06:28:44.086Z,10.10
2023-04-12T06:29:46.002Z,10.15
2023-04-12T06:30:47.735Z,10.45
2023-04-12T06:31:49.515Z,9.93
2023-04-12T06:32:51.393Z,10.13
2023-04-12T06:33:53.117Z,9.85
2023-04-12T06:34:54.842Z,9.93
2023-04-12T06:35:56.725Z,9.02
2023-04-12T06:36:58.473Z,10.20
2023-04-12T06:38:00.191Z,8.85
2023-04-12T06:39:01.896Z,9.27
2023-04-12T06:40:03.818Z,8.48
2023-04-12T06:41:06.346Z,9.48
2023-04-12T06:42:08.105Z,9.18
2023-04-12T06:43:09.838Z,9.90
2023-04-12T06:44:11.521Z,9.30
2023-04-12T06:45:13.303Z,10.02
2023-04-12T06:46:21.388Z,11.68
2023-04-12T06:47:25.383Z,9.05
2023-04-12T06:48:29.046Z,9.20
2023-04-12T06:49:30.767Z,9.68
2023-04-12T06:50:32.479Z,9.38
2023-04-12T06:51:37.098Z,9.65
2023-04-12T06:52:39.007Z,9.10
2023-04-12T06:53:40.721Z,10.00
2023-04-12T06:54:42.578Z,9.30
2023-04-12T06:55:44.377Z,8.98
2023-04-12T06:56:47.487Z,10.02
2023-04-12T06:57:52.193Z,8.73
2023-04-12T06:58:53.952Z,9.15
2023-04-12T06:59:55.692Z,9.15
2023-04-12T07:01:08.125Z,8.82
2023-04-12T07:02:10.072Z,8.60
2023-04-12T07:03:14.446Z,8.73
2023-04-12T07:04:17.074Z,8.93
2023-04-12T07:05:18.953Z,7.70
2023-04-12T07:06:25.690Z,9.00
2023-04-12T07:07:28.109Z,7.18
2023-04-12T07:08:30.288Z,7.07
2023-04-12T07:09:35.319Z,7.47
2023-04-12T07:10:37.217Z,6.35
2023-04-12T07:11:38.991Z,6.38
2023-04-12T07:12:41.999Z,5.47
2023-04-12T07:13:43.760Z,5.53
2023-04-12T07:14:45.447Z,5.10
2023-04-12T07:15:47.663Z,5.85
2023-04-12T07:16:49.419Z,5.78
2023-04-12T07:17:51.964Z,5.85
2023-04-12T07:18:53.703Z,5.20
2023-04-12T07:19:55.556Z,4.75
2023-04-12T07:20:57.652Z,4.40
2023-04-12T07:21:59.394Z,4.75
2023-04-12T07:23:01.342Z,4.05
2023-04-12T07:24:03.487Z,4.03
2023-04-12T07:25:10.310Z,3.58
2023-04-12T07:26:12.172Z,3.47
2023-04-12T07:27:13.908Z,3.17
2023-04-12T07:28:15.804Z,2.95
2023-04-12T07:29:17.490Z,2.60
2023-04-12T07:30:19.700Z,2.33
2023-04-12T07:31:21.600Z,1.80
2023-04-12T07:32:23.486Z,1.90
2023-04-12T07:33:26.716Z,1.90
2023-04-12T07:34:28.793Z,2.20
2023-04-12T07:35:30.552Z,1.70
2023-04-12T07:36:32.326Z,1.60
2023-04-12T07:37:34.191Z,1.60
2023-04-12T07:38:35.966Z,1.70
2023-04-12T07:39:40.629Z,1.50
2023-04-12T07:40:42.491Z,2.10
2023-04-12T07:41:46.490Z,1.63
2023-04-12T07:42:48.221Z,1.60
2023-04-12T07:43:50.619Z,1.48
2023-04-12T07:44:52.334Z,1.45
2023-04-12T07:45:56.962Z,1.40
2023-04-12T07:46:58.717Z,1.30
2023-04-12T07:48:00.623Z,1.55
2023-04-12T07:49:02.384Z,1.70
2023-04-12T07:50:04.360Z,2.33
2023-04-12T07:51:06.352Z,1.85
2023-04-12T07:52:08.065Z,1.92
2023-04-12T07:53:24.435Z,2.45
2023-04-12T07:54:28.351Z,2.90
2023-04-12T07:55:30.058Z,2.67
2023-04-12T07:56:35.762Z,3.05
2023-04-12T07:57:37.958Z,2.63
2023-04-12T07:58:39.860Z,2.88
2023-04-12T07:59:41.556Z,2.67
2023-04-12T08:00:46.943Z,2.70
2023-04-12T08:01:48.791Z,3.50
2023-04-12T08:02:50.722Z,4.10
2023-04-12T08:03:52.960Z,3.80
2023-04-12T08:04:55.034Z,3.97
2023-04-12T08:05:57.064Z,3.53
2023-04-12T08:06:59.490Z,4.80
2023-04-12T08:08:02.316Z,3.50
2023-04-12T08:09:04.023Z,3.92
2023-04-12T08:10:06.307Z,4.00
2023-04-12T08:11:08.062Z,3.95
2023-04-12T08:12:10.031Z,3.53
2023-04-12T08:13:11.878Z,3.25
2023-04-12T08:14:13.671Z,3.67
2023-04-12T08:15:15.412Z,3.55
2023-04-12T08:16:17.205Z,3.17
2023-04-12T08:17:19.037Z,2.95
2023-04-12T08:18:21.219Z,2.95
2023-04-12T08:19:23.181Z,3.15
2023-04-12T08:20:24.949Z,3.42
2023-04-12T08:21:27.773Z,2.70
2023-04-12T08:22:29.573Z,2.95
2023-04-12T08:23:31.373Z,3.10
2023-04-12T08:24:33.087Z,3.10
2023-04-12T08:25:34.920Z,2.90
2023-04-12T08:26:36.667Z,3.05
2023-04-12T08:27:41.687Z,3.05
2023-04-12T08:28:43.495Z,3.08
2023-04-12T08:29:45.207Z,2.85
2023-04-12T08:30:47.058Z,2.95
2023-04-12T08:31:48.840Z,3.05
2023-04-12T08:32:50.655Z,3.22
2023-04-12T08:33:52.526Z,2.80
2023-04-12T08:34:54.263Z,2.97
2023-04-12T08:35:55.992Z,3.13
2023-04-12T08:37:00.398Z,3.30
2023-04-12T08:38:07.589Z,3.35
2023-04-12T08:39:09.813Z,3.20
2023-04-12T08:40:12.524Z,2.90
2023-04-12T08:41:15.086Z,3.05
2023-04-12T08:42:17.507Z,3.45
2023-04-12T08:43:23.060Z,3.45
2023-04-12T08:44:38.773Z,2.80
2023-04-12T08:45:40.690Z,3.30
2023-04-12T08:46:42.856Z,2.92
2023-04-12T08:47:45.091Z,3.63
2023-04-12T08:48:49.067Z,3.72
2023-04-12T08:49:50.883Z,3.20
2023-04-12T08:50:53.029Z,2.92
2023-04-12T08:51:59.128Z,3.10
2023-04-12T08:53:00.972Z,3.10
2023-04-12T08:54:02.723Z,2.58
2023-04-12T08:55:09.060Z,2.80
2023-04-12T08:56:12.877Z,3.17
2023-04-12T08:57:18.198Z,3.17
2023-04-12T08:58:20.917Z,3.30
2023-04-12T08:59:22.832Z,3.10
2023-04-12T09:00:25.182Z,2.70
2023-04-12T09:01:27.311Z,2.50
2023-04-12T09:02:29.417Z,2.60
2023-04-12T09:03:33.692Z,2.90
2023-04-12T09:04:47.805Z,3.25
2023-04-12T09:05:49.620Z,2.85
2023-04-12T09:06:51.766Z,3.67
2023-04-12T09:07:53.562Z,3.58
2023-04-12T09:08:57.140Z,3.70
2023-04-12T09:09:59.149Z,3.30
2023-04-12T09:11:01.107Z,3.78
2023-04-12T09:12:07.845Z,3.10
2023-04-12T09:13:12.238Z,2.67
2023-04-12T09:14:25.717Z,2.40
2023-04-12T09:15:27.623Z,2.85
2023-04-12T09:16:36.497Z,2.60
2023-04-12T09:17:39.207Z,3.00
2023-04-12T09:18:51.390Z,2.67
2023-04-12T09:19:55.148Z,2.75
2023-04-12T09:21:11.894Z,2.90
2023-04-12T09:22:13.689Z,2.50
2023-04-12T09:23:20.397Z,2.92
2023-04-12T09:24:24.443Z,3.03
2023-04-12T09:25:45.766Z,2.80
2023-04-12T09:26:47.498Z,2.90
2023-04-12T09:27:53.465Z,2.58
2023-04-12T09:28:55.275Z,2.30
2023-04-12T09:30:09.826Z,1.98
2023-04-12T09:31:17.500Z,2.20
2023-04-12T09:32:29.310Z,2.50
2023-04-12T09:33:36.032Z,2.25
2023-04-12T09:34:37.851Z,2.38
2023-04-12T09:35:39.839Z,2.30
2023-04-12T09:36:41.924Z,2.08
2023-04-12T09:37:43.693Z,2.03
2023-04-12T09:39:05.362Z,2.22
2023-04-12T09:40:09.614Z,2.40
2023-04-12T09:41:30.399Z,2.03
2023-04-12T09:42:36.065Z,2.47
2023-04-12T09:43:39.847Z,1.77
2023-04-12T09:44:41.805Z,1.98
2023-04-12T09:45:43.508Z,2.20
2023-04-12T09:46:52.267Z,2.42
2023-04-12T09:47:55.324Z,2.25
2023-04-12T09:49:03.267Z,2.25
2023-04-12T09:50:07.493Z,2.22
2023-04-12T09:51:09.282Z,2.53
2023-04-12T09:52:12.760Z,2.58
2023-04-12T09:53:18.684Z,2.30
2023-04-12T09:54:21.057Z,2.45
2023-04-12T09:55:25.582Z,2.30
2023-04-12T09:56:32.500Z,2.47
2023-04-12T09:57:34.434Z,2.60
2023-04-12T09:58:38.580Z,3.10
2023-04-12T09:59:41.957Z,2.67
2023-04-12T10:00:44.392Z,2.70
2023-04-12T10:01:47.176Z,2.50
2023-04-12T10:02:52.249Z,2.33
2023-04-12T10:03:55.710Z,2.78
2023-04-12T10:04:58.561Z,2.50
2023-04-12T10:06:04.730Z,3.15
2023-04-12T10:07:06.962Z,2.28
2023-04-12T10:08:11.457Z,2.50
2023-04-12T10:09:14.580Z,2.38
2023-04-12T10:10:18.169Z,2.55
2023-04-12T10:11:20.105Z,2.50
2023-04-12T10:12:21.968Z,2.75
2023-04-12T10:13:24.491Z,2.67
2023-04-12T10:14:29.316Z,2.17
2023-04-12T10:15:32.861Z,2.08
2023-04-12T10:16:35.344Z,2.20
2023-04-12T10:17:37.449Z,2.10
2023-04-12T10:18:39.522Z,2.63
2023-04-12T10:19:41.288Z,2.30
2023-04-12T10:20:43.424Z,2.45
2023-04-12T10:21:45.163Z,2.50
2023-04-12T10:22:49.500Z,2.97
2023-04-12T10:23:51.478Z,2.00
2023-04-12T10:24:53.328Z,2.03
2023-04-12T10:25:57.197Z,1.90
2023-04-12T10:27:03.091Z,2.10
2023-04-12T10:28:19.061Z,2.45
2023-04-12T10:29:25.438Z,1.92
2023-04-12T10:30:32.258Z,1.90
2023-04-12T10:31:34.275Z,2.40
2023-04-12T10:32:36.615Z,1.90
2023-04-12T10:33:38.671Z,2.22
2023-04-12T10:34:44.923Z,1.80
2023-04-12T10:35:55.230Z,2.22
2023-04-12T10:36:58.478Z,2.17
2023-04-12T10:38:03.824Z,2.50
2023-04-12T10:39:10.622Z,2.20
2023-04-12T10:40:19.674Z,2.20
2023-04-12T10:41:22.358Z,1.90
2023-04-12T10:42:29.265Z,1.90
2023-04-12T10:43:31.009Z,1.83
2023-04-12T10:44:32.757Z,1.90
2023-04-12T10:45:35.452Z,2.83
2023-04-12T10:46:46.512Z,2.78
2023-04-12T10:48:53.650Z,2.40
2023-04-12T10:50:27.381Z,2.60
2023-04-12T10:51:29.163Z,2.30
2023-04-12T10:52:30.895Z,2.35
2023-04-12T10:53:32.608Z,2.22
2023-04-12T10:54:35.778Z,1.90
2023-04-12T10:55:38.602Z,2.10
2023-04-12T10:56:44.886Z,3.28
2023-04-12T10:57:49.491Z,1.90
2023-04-12T10:58:51.375Z,2.03
2023-04-12T10:59:59.601Z,2.00
2023-04-12T11:01:01.446Z,1.48
2023-04-12T11:02:12.239Z,2.45
2023-04-12T11:03:15.090Z,2.35
2023-04-12T11:04:22.254Z,1.92
2023-04-12T11:05:24.317Z,2.47
2023-04-12T11:06:47.109Z,2.22
2023-04-12T11:07:53.953Z,1.65
2023-04-12T11:08:57.096Z,1.63
2023-04-12T11:10:00.167Z,2.08
2023-04-12T11:11:03.796Z,1.80
2023-04-12T11:12:05.733Z,1.50
2023-04-12T11:13:09.411Z,1.48
2023-04-12T11:14:11.555Z,1.85
2023-04-12T11:15:14.060Z,1.83
2023-04-12T11:16:16.268Z,2.00
2023-04-12T11:17:21.777Z,1.27
2023-04-12T11:18:24.156Z,1.50
2023-04-12T11:19:26.076Z,1.73
2023-04-12T11:20:27.933Z,1.92
2023-04-12T11:21:30.822Z,1.10
2023-04-12T11:22:33.412Z,1.02
2023-04-12T11:23:36.504Z,1.20
2023-04-12T11:24:46.782Z,1.13
2023-04-12T11:25:55.266Z,1.47
2023-04-12T11:26:58.341Z,1.27
2023-04-12T11:28:00.971Z,1.00
2023-04-12T11:29:08.154Z,1.10
2023-04-12T11:30:10.379Z,1.05
2023-04-12T11:31:12.455Z,1.00
2023-04-12T11:32:17.538Z,1.10
2023-04-12T11:33:37.200Z,1.40
2023-04-12T11:34:39.035Z,1.60
2023-04-12T11:35:44.101Z,1.60
2023-04-12T11:36:47.069Z,1.60
2023-04-12T11:37:48.980Z,1.40
2023-04-12T11:38:51.800Z,1.70
2023-04-12T11:39:56.144Z,1.60
2023-04-12T11:40:58.005Z,1.70
2023-04-12T11:42:00.144Z,1.52
2023-04-12T11:43:01.939Z,1.80
2023-04-12T11:44:03.808Z,1.42
2023-04-12T11:45:14.306Z,1.83
2023-04-12T11:46:19.683Z,1.35
2023-04-12T11:47:23.959Z,1.50
2023-04-12T11:48:29.537Z,1.20
2023-04-12T11:49:31.406Z,1.30
2023-04-12T11:50:33.613Z,1.50
2023-04-12T11:51:35.944Z,1.50
2023-04-12T11:52:37.770Z,1.33
2023-04-12T11:53:39.504Z,1.40
2023-04-12T11:54:51.673Z,1.23
2023-04-12T11:55:57.036Z,1.20
2023-04-12T11:56:58.802Z,1.30
2023-04-12T11:58:00.536Z,1.60
2023-04-12T11:59:02.286Z,1.40
2023-04-12T12:00:06.760Z,1.60
2023-04-12T12:01:11.005Z,1.55
2023-04-12T12:02:21.966Z,1.25
2023-04-12T12:03:25.400Z,1.30
2023-04-12T12:04:30.934Z,1.38
2023-04-12T12:05:37.479Z,1.10
2023-04-12T12:06:40.335Z,1.15
2023-04-12T12:07:42.609Z,1.10
2023-04-12T12:08:44.525Z,1.30
2023-04-12T12:09:47.008Z,1.10
2023-04-12T12:11:06.286Z,1.50
2023-04-12T12:12:13.881Z,1.38
2023-04-12T12:13:16.127Z,1.48
2023-04-12T12:14:23.274Z,1.23
2023-04-12T12:15:30.697Z,1.58
2023-04-12T12:16:32.500Z,1.50
2023-04-12T12:17:38.684Z,1.42
2023-04-12T12:18:45.459Z,1.40
2023-04-12T12:19:47.234Z,1.33
2023-04-12T12:20:51.012Z,1.42
2023-04-12T12:21:52.739Z,1.33
2023-04-12T12:22:54.614Z,1.27
2023-04-12T12:23:57.370Z,1.10
2023-04-12T12:25:00.763Z,1.20
2023-04-12T12:26:18.908Z,1.48
2023-04-12T12:27:42.000Z,1.20
2023-04-12T12:28:45.000Z,1.48
2023-04-12T12:29:54.563Z,1.40
2023-04-12T12:30:58.178Z,1.38
2023-04-12T12:32:01.887Z,1.38
2023-04-12T12:33:03.704Z,1.05
2023-04-12T12:34:08.841Z,1.20
2023-04-12T12:35:12.833Z,1.20
2023-04-12T12:36:18.489Z,1.20
2023-04-12T12:37:23.300Z,1.40
2023-04-12T12:38:32.039Z,1.27
2023-04-12T12:39:34.218Z,1.33
2023-04-12T12:40:36.232Z,1.50
2023-04-12T12:41:39.185Z,1.05
2023-04-12T12:42:45.685Z,1.20
2023-04-12T12:43:48.625Z,1.27
2023-04-12T12:44:50.400Z,1.30
2023-04-12T12:45:52.113Z,1.10
2023-04-12T12:46:58.703Z,1.00
2023-04-12T12:48:09.036Z,1.30
2023-04-12T12:49:10.842Z,1.40
2023-04-12T12:50:14.368Z,1.10
2023-04-12T12:51:22.417Z,1.00
2023-04-12T12:52:24.375Z,1.10
2023-04-12T12:53:26.207Z,1.08
2023-04-12T12:54:40.294Z,1.15
2023-04-12T12:55:43.086Z,1.00
2023-04-12T12:56:45.180Z,1.20
2023-04-12T12:58:01.730Z,1.25
2023-04-12T13:00:11.138Z,0.90
2023-04-12T13:01:12.940Z,1.00
2023-04-12T13:02:15.744Z,1.20
2023-04-12T13:03:17.911Z,1.20
2023-04-12T13:04:19.900Z,1.10
2023-04-12T13:05:22.728Z,1.13
2023-04-12T13:06:28.181Z,1.30
2023-04-12T13:07:30.005Z,1.15
2023-04-12T13:08:35.450Z,1.13
2023-04-12T13:09:38.461Z,1.17
2023-04-12T13:10:40.457Z,1.20
2023-04-12T13:11:42.197Z,1.38
2023-04-12T13:12:44.029Z,1.20
2023-04-12T13:13:45.903Z,1.00
2023-04-12T13:14:48.361Z,1.13
2023-04-12T13:15:52.958Z,1.15
2023-04-12T13:16:54.831Z,0.85
2023-04-12T13:17:56.760Z,1.10
2023-04-12T13:18:58.968Z,1.10
2023-04-12T13:20:01.016Z,1.10
2023-04-12T13:21:02.823Z,1.20
2023-04-12T13:22:04.554Z,1.20
2023-04-12T13:23:06.268Z,1.25
2023-04-12T13:24:08.038Z,0.90
2023-04-12T13:25:10.059Z,1.25
2023-04-12T13:26:11.808Z,1.15
2023-04-12T13:27:15.376Z,1.10
2023-04-12T13:28:17.278Z,1.08
2023-04-12T13:29:19.010Z,1.10
2023-04-12T13:30:21.008Z,1.00
2023-04-12T13:31:22.827Z,0.90
2023-04-12T13:32:24.707Z,0.60
2023-04-12T13:33:27.181Z,0.82
2023-04-12T13:34:29.346Z,1.10
2023-04-12T13:35:31.523Z,1.00
2023-04-12T13:36:33.619Z,0.90
2023-04-12T13:37:35.627Z,0.90
2023-04-12T13:38:37.312Z,1.02
2023-04-12T13:39:40.343Z,1.15
2023-04-12T13:40:42.063Z,1.20
2023-04-12T13:41:43.924Z,1.10
2023-04-12T13:42:45.657Z,1.10
2023-04-12T13:43:47.383Z,1.20
2023-04-12T13:44:49.504Z,1.67
2023-04-12T13:45:51.308Z,1.20
2023-04-12T13:46:53.652Z,1.00
2023-04-12T13:47:55.376Z,1.20
2023-04-12T13:48:57.697Z,1.35
2023-04-12T13:50:01.841Z,1.17
2023-04-12T13:51:04.284Z,1.20
2023-04-12T13:52:06.132Z,1.45
2023-04-12T13:53:07.835Z,1.33
2023-04-12T13:54:09.583Z,1.00
2023-04-12T13:55:11.393Z,1.20
2023-04-12T13:56:13.452Z,1.00
2023-04-12T13:57:15.181Z,1.08
2023-04-12T13:58:17.289Z,1.20
2023-04-12T13:59:19.180Z,1.00
2023-04-12T14:00:21.472Z,1.05
2023-04-12T14:01:25.045Z,1.30
2023-04-12T14:02:29.370Z,1.00
2023-04-12T14:03:33.143Z,1.20
2023-04-12T14:04:35.278Z,0.88
2023-04-12T14:05:37.023Z,1.00
2023-04-12T14:06:38.924Z,0.98
2023-04-12T14:07:40.733Z,0.90
2023-04-12T14:08:42.476Z,0.93
2023-04-12T14:09:44.236Z,1.20